Time;durP1;ratioP1;P1;durP2;ratioP2;P2;SDS_P1;SDS_P2;PMS_P1;PMS_P2;Temp;Humidity;BMP_temperature;BMP_pressure;BME280_temperature;BME280_humidity;BME280_pressure;Samples;Min_cycle;Max_cycle;Signal;HPM_P1;HPM_P2
2023/12/30 00:03:00;;;;;;;4.15;1.70;;;;;;;5.19;100.00;100468.44;10424621;28;20045;-88
2023/12/30 00:08:01;;;;;;;4.97;1.63;;;;;;;4.94;100.00;100452.97;10472933;28;20041;-88
2023/12/30 00:13:02;;;;;;;9.15;2.08;;;;;;;5.11;100.00;100474.19;10424535;28;20037;-90
2023/12/30 00:18:03;;;;;;;4.80;1.70;;;;;;;5.00;100.00;100465.72;10441037;28;20029;-89
2023/12/30 00:23:03;;;;;;;7.05;2.20;;;;;;;4.94;100.00;100452.97;10439203;28;20033;-89
2023/12/30 00:28:04;;;;;;;7.70;2.28;;;;;;;5.05;100.00;100468.56;10440410;28;20052;-89
2023/12/30 00:33:05;;;;;;;7.75;1.80;;;;;;;5.05;100.00;100465.03;10455905;28;20040;-88
2023/12/30 00:38:06;;;;;;;10.50;3.95;;;;;;;5.17;100.00;100478.75;10439787;28;20546;-88
2023/12/30 00:43:06;;;;;;;5.72;1.60;;;;;;;5.26;100.00;100480.09;10432349;28;20045;-89
2023/12/30 00:48:07;;;;;;;9.10;2.20;;;;;;;5.14;100.00;100462.81;10432494;28;20053;-86
2023/12/30 00:53:07;;;;;;;7.35;2.10;;;;;;;5.13;100.00;100491.19;10458407;28;20041;-89
2023/12/30 00:58:08;;;;;;;4.55;2.00;;;;;;;5.05;100.00;100487.66;10419649;28;20068;-89
2023/12/30 01:03:08;;;;;;;7.72;1.73;;;;;;;4.90;100.00;100457.22;10455472;28;20052;-88
2023/12/30 01:08:09;;;;;;;8.63;2.22;;;;;;;4.96;100.00;100489.06;10473453;28;20033;-85
2023/12/30 01:13:09;;;;;;;7.05;2.70;;;;;;;4.93;100.00;100502.31;10474088;28;20044;-88
2023/12/30 01:18:09;;;;;;;6.88;1.92;;;;;;;4.99;100.00;100515.03;10454356;28;20045;-89
2023/12/30 01:23:10;;;;;;;9.10;2.47;;;;;;;5.01;100.00;100519.19;10438623;28;20075;-89
2023/12/30 01:28:10;;;;;;;7.05;1.70;;;;;;;4.93;100.00;100516.75;10455736;28;20049;-88
2023/12/30 01:33:11;;;;;;;6.38;1.67;;;;;;;4.95;100.00;100531.00;10439428;28;20041;-89
2023/12/30 01:38:11;;;;;;;6.50;1.42;;;;;;;5.02;100.00;100522.75;10438192;28;20045;-89
2023/12/30 01:43:41;;;;;;;14.45;1.77;;;;;;;5.02;100.00;100526.34;10440303;28;20033;-90
2023/12/30 01:48:42;;;;;;;5.30;1.60;;;;;;;5.00;100.00;100527.59;10426543;28;20492;-89
2023/12/30 01:53:42;;;;;;;5.43;1.58;;;;;;;4.98;100.00;100525.13;10447180;28;20033;-88
2023/12/30 01:58:43;;;;;;;11.35;3.13;;;;;;;4.87;100.00;100523.13;10445851;28;20041;-89
2023/12/30 02:03:44;;;;;;;5.25;1.80;;;;;;;5.01;100.00;100521.09;10442855;28;20045;-88
2023/12/30 02:08:45;;;;;;;4.55;1.83;;;;;;;4.96;100.00;100520.94;10462290;28;20037;-87
2023/12/30 02:13:46;;;;;;;7.82;1.83;;;;;;;4.67;100.00;100467.94;10421733;28;20037;-88
2023/12/30 02:18:47;;;;;;;15.05;3.78;;;;;;;4.92;100.00;100527.91;10462002;28;20060;-90
2023/12/30 02:23:52;;;;;;;6.93;1.67;;;;;;;5.19;100.00;100542.13;10427870;28;20029;-89
2023/12/30 02:28:52;;;;;;;11.23;1.90;;;;;;;5.08;100.00;100515.56;10478291;28;20033;-87
2023/12/30 02:33:53;;;;;;;4.47;1.27;;;;;;;5.21;100.00;100542.72;10435498;28;20040;-89
2023/12/30 02:38:53;;;;;;;2.75;1.15;;;;;;;5.27;100.00;100530.88;10444718;28;20409;-89
2023/12/30 02:43:57;;;;;;;9.20;1.60;;;;;;;5.30;100.00;100546.81;10445381;28;20037;-85
2023/12/30 02:49:02;;;;;;;6.30;1.83;;;;;;;5.35;100.00;100543.38;10444843;28;20067;-86
2023/12/30 02:54:02;;;;;;;9.18;3.38;;;;;;;5.37;100.00;100544.81;10441850;28;20416;-87
2023/12/30 02:59:03;;;;;;;6.18;2.28;;;;;;;5.38;100.00;100567.50;10422725;28;20048;-84
2023/12/30 03:04:04;;;;;;;9.00;1.92;;;;;;;5.52;100.00;100562.72;10416940;28;20037;-86
2023/12/30 03:09:04;;;;;;;7.65;1.50;;;;;;;5.61;100.00;100572.28;10460231;28;20044;-88
2023/12/30 03:14:05;;;;;;;4.85;1.25;;;;;;;5.62;100.00;100573.94;10422595;28;20041;-86
2023/12/30 03:19:05;;;;;;;5.97;1.70;;;;;;;5.67;100.00;100582.28;10476936;28;20044;-89
2023/12/30 03:24:06;;;;;;;5.80;1.60;;;;;;;5.70;100.00;100592.75;10440504;28;20362;-89
2023/12/30 03:29:06;;;;;;;7.55;1.40;;;;;;;5.72;100.00;100581.59;10452215;28;20045;-87
2023/12/30 03:34:07;;;;;;;9.32;2.35;;;;;;;5.83;100.00;100594.50;10438227;28;20040;-89
2023/12/30 03:39:07;;;;;;;8.80;1.88;;;;;;;5.89;100.00;100596.31;10424489;28;20057;-88
2023/12/30 03:44:08;;;;;;;8.90;1.88;;;;;;;5.55;100.00;100537.69;10455873;28;20044;-86
2023/12/30 03:49:09;;;;;;;8.82;1.75;;;;;;;5.87;100.00;100592.97;10449377;28;20508;-88
2023/12/30 03:54:09;;;;;;;5.90;2.15;;;;;;;5.92;100.00;100604.03;10458016;28;20049;-77
2023/12/30 03:59:10;;;;;;;9.60;1.73;;;;;;;5.89;100.00;100606.38;10451094;28;20071;-88
2023/12/30 04:04:10;;;;;;;9.50;1.65;;;;;;;5.75;100.00;100606.56;10440887;28;20588;-86
2023/12/30 04:09:11;;;;;;;7.68;1.63;;;;;;;5.57;100.00;100579.25;10439795;28;20052;-84
2023/12/30 04:14:11;;;;;;;11.18;1.65;;;;;;;5.47;100.00;100605.19;10441190;28;20083;-89
2023/12/30 04:19:12;;;;;;;5.55;1.45;;;;;;;5.41;100.00;100611.56;10422423;28;20405;-87
2023/12/30 04:24:13;;;;;;;6.60;1.98;;;;;;;5.38;100.00;100628.41;10439596;28;20037;-86
2023/12/30 04:29:13;;;;;;;8.40;1.73;;;;;;;5.24;100.00;100621.41;10454339;28;20048;-88
2023/12/30 04:34:14;;;;;;;6.53;1.70;;;;;;;5.22;100.00;100623.53;10472375;28;20263;-87
2023/12/30 04:39:14;;;;;;;7.28;1.70;;;;;;;5.18;100.00;100628.59;10457001;28;20186;-89
2023/12/30 04:44:15;;;;;;;7.78;2.08;;;;;;;5.24;100.00;100626.88;10439560;28;20044;-87
2023/12/30 04:49:15;;;;;;;7.25;1.90;;;;;;;5.30;100.00;100633.31;10423188;28;20053;-87
2023/12/30 04:54:16;;;;;;;12.75;2.53;;;;;;;5.41;100.00;100640.75;10454949;28;20068;-81
2023/12/30 04:59:16;;;;;;;14.23;2.30;;;;;;;5.51;100.00;100635.59;10454909;28;20037;-87
2023/12/30 05:04:17;;;;;;;3.58;1.17;;;;;;;5.54;100.00;100639.78;10429529;28;20057;-82
2023/12/30 05:09:17;;;;;;;10.75;1.92;;;;;;;5.63;100.00;100642.00;10430770;28;20068;-85
2023/12/30 05:14:19;;;;;;;8.45;1.80;;;;;;;5.50;100.00;100644.03;10456164;28;20037;-86
2023/12/30 05:19:20;;;;;;;9.63;1.48;;;;;;;5.57;100.00;100667.47;10451491;28;20437;-88
2023/12/30 05:24:21;;;;;;;11.32;1.50;;;;;;;5.44;100.00;100665.72;10446549;28;20045;-88
2023/12/30 05:29:22;;;;;;;7.32;2.00;;;;;;;5.58;100.00;100660.97;10430694;28;20040;-84
2023/12/30 05:34:23;;;;;;;8.05;1.50;;;;;;;5.55;100.00;100683.25;10460544;28;20044;-88
2023/12/30 05:39:23;;;;;;;10.50;1.65;;;;;;;5.48;100.00;100687.97;10458514;28;20044;-85
2023/12/30 05:44:24;;;;;;;8.70;1.75;;;;;;;5.40;100.00;100697.25;10456703;28;20037;-81
2023/12/30 05:49:24;;;;;;;10.32;1.70;;;;;;;5.23;100.00;100671.59;10429823;28;20037;-88
2023/12/30 05:54:26;;;;;;;9.55;1.90;;;;;;;5.31;100.00;100706.78;10465048;28;20048;-84
2023/12/30 05:59:27;;;;;;;15.50;3.30;;;;;;;5.18;100.00;100696.00;10444632;28;20051;-88
2023/12/30 06:04:27;;;;;;;8.00;1.55;;;;;;;5.15;100.00;100710.09;10446061;28;20049;-84
2023/12/30 06:09:27;;;;;;;9.00;1.77;;;;;;;5.23;100.00;100701.63;10462004;28;20033;-86
2023/12/30 06:14:28;;;;;;;13.38;1.95;;;;;;;5.28;100.00;100709.97;10445368;28;20040;-88
2023/12/30 06:19:28;;;;;;;4.00;1.27;;;;;;;5.37;100.00;100725.00;10461665;28;20044;-88
2023/12/30 06:24:29;;;;;;;9.68;1.50;;;;;;;5.40;100.00;100721.00;10443919;28;20111;-86
2023/12/30 06:29:30;;;;;;;10.30;2.38;;;;;;;5.36;100.00;100704.22;10461043;28;20056;-78
2023/12/30 06:34:31;;;;;;;18.00;3.47;;;;;;;5.44;100.00;100731.25;10442907;28;20033;-86
2023/12/30 06:39:31;;;;;;;9.52;1.50;;;;;;;5.39;100.00;100728.34;10444134;28;20039;-86
2023/12/30 06:44:32;;;;;;;10.93;1.77;;;;;;;5.16;100.00;100723.50;10461383;28;20037;-86
2023/12/30 06:49:32;;;;;;;11.60;2.42;;;;;;;5.15;100.00;100738.22;10436402;28;20523;-83
2023/12/30 06:54:33;;;;;;;11.80;2.17;;;;;;;5.07;100.00;100721.28;10444069;28;20041;-85
2023/12/30 06:59:35;;;;;;;11.20;2.05;;;;;;;5.10;100.00;100735.31;10444936;28;20041;-88
2023/12/30 07:04:35;;;;;;;12.45;1.60;;;;;;;5.02;100.00;100763.72;10439182;28;20128;-86
2023/12/30 07:09:35;;;;;;;10.10;1.50;;;;;;;5.04;100.00;100758.00;10458509;28;20403;-87
2023/12/30 07:14:38;;;;;;;10.85;2.50;;;;;;;4.92;100.00;100784.31;10426138;28;20044;-80
2023/12/30 07:19:38;;;;;;;12.65;2.58;;;;;;;4.90;100.00;100790.03;10460860;28;20044;-84
2023/12/30 07:24:38;;;;;;;11.82;1.85;;;;;;;4.86;100.00;100780.59;10460417;28;20052;-87
2023/12/30 07:29:39;;;;;;;10.80;2.67;;;;;;;4.89;100.00;100810.16;10476460;28;20068;-88
2023/12/30 07:34:40;;;;;;;11.38;2.03;;;;;;;4.81;100.00;100804.97;10425341;28;20041;-86
2023/12/30 07:39:40;;;;;;;9.18;1.30;;;;;;;4.80;100.00;100795.13;10441019;28;20059;-85
2023/12/30 07:44:41;;;;;;;12.82;1.92;;;;;;;4.81;100.00;100813.97;10439839;28;20190;-86
2023/12/30 07:49:41;;;;;;;14.20;2.28;;;;;;;4.91;100.00;100840.78;10441701;28;20059;-86
2023/12/30 07:54:42;;;;;;;8.65;1.67;;;;;;;4.91;100.00;100840.78;10460071;28;20041;-86
2023/12/30 07:59:42;;;;;;;14.20;2.08;;;;;;;4.90;100.00;100833.66;10441802;28;20512;-84
2023/12/30 08:04:43;;;;;;;14.43;2.25;;;;;;;5.07;100.00;100839.44;10443118;28;20118;-87
2023/12/30 08:09:44;;;;;;;14.52;2.05;;;;;;;5.21;100.00;100862.06;10437023;28;20037;-86
2023/12/30 08:14:44;;;;;;;7.90;1.85;;;;;;;5.22;100.00;100861.81;10456377;28;20455;-85
2023/12/30 08:19:45;;;;;;;11.77;2.47;;;;;;;5.23;100.00;100874.41;10458246;28;20044;-85
2023/12/30 08:24:45;;;;;;;14.27;2.42;;;;;;;5.24;100.00;100887.00;10474039;28;20413;-85
2023/12/30 08:29:46;;;;;;;7.47;2.40;;;;;;;5.27;100.00;100902.09;10474601;28;20167;-88
2023/12/30 08:34:46;;;;;;;16.75;2.25;;;;;;;5.07;100.00;100871.38;10423234;28;20033;-85
2023/12/30 08:39:47;;;;;;;15.43;2.65;;;;;;;5.30;100.00;100923.50;10423024;28;20052;-87
2023/12/30 08:44:47;;;;;;;11.68;2.08;;;;;;;5.23;100.00;100941.81;10459089;28;20048;-79
2023/12/30 08:49:48;;;;;;;19.17;1.95;;;;;;;5.16;100.00;100930.91;10457953;28;20173;-86
2023/12/30 08:54:48;;;;;;;12.18;2.13;;;;;;;5.08;100.00;100933.06;10458231;28;20039;-88
2023/12/30 08:59:49;;;;;;;13.10;2.95;;;;;;;5.16;100.00;100939.09;10456701;28;20033;-89
2023/12/30 09:04:49;;;;;;;9.07;1.75;;;;;;;5.28;100.00;100950.19;10471642;28;20485;-89
2023/12/30 09:09:50;;;;;;;7.50;1.50;;;;;;;5.34;100.00;100956.69;10453324;28;20041;-88
2023/12/30 09:14:50;;;;;;;8.20;1.90;;;;;;;5.21;100.00;100949.41;10456532;28;20037;-87
2023/12/30 09:19:51;;;;;;;9.00;3.10;;;;;;;5.00;100.00;100947.78;10448246;28;20045;-89
2023/12/30 09:24:51;;;;;;;6.15;2.05;;;;;;;5.00;100.00;100943.19;10439387;28;20060;-86
2023/12/30 09:29:52;;;;;;;5.03;1.50;;;;;;;4.94;100.00;100954.09;10456847;28;20088;-88
2023/12/30 09:34:53;;;;;;;4.65;1.60;;;;;;;4.98;100.00;100972.56;10437302;28;20422;-88
2023/12/30 09:39:53;;;;;;;8.88;1.52;;;;;;;4.92;100.00;100957.06;10437504;28;20055;-87
2023/12/30 09:44:54;;;;;;;9.70;1.52;;;;;;;5.05;100.00;100978.00;10416425;28;20037;-87
2023/12/30 09:49:55;;;;;;;14.45;2.17;;;;;;;5.15;100.00;100980.28;10456961;28;20033;-87
2023/12/30 09:54:56;;;;;;;7.15;1.60;;;;;;;5.23;100.00;100980.03;10420379;28;20588;-89
2023/12/30 09:59:56;;;;;;;11.95;1.85;;;;;;;5.35;100.00;100982.91;10435321;28;20080;-88
2023/12/30 10:04:57;;;;;;;8.93;2.20;;;;;;;5.45;100.00;100984.09;10423518;28;20061;-88
2023/12/30 10:09:58;;;;;;;11.90;1.45;;;;;;;5.54;100.00;100975.66;10462944;28;20039;-89
2023/12/30 10:14:58;;;;;;;11.20;2.00;;;;;;;5.58;100.00;100977.75;10461859;28;20056;-77
2023/12/30 10:19:59;;;;;;;8.88;2.22;;;;;;;5.61;100.00;100974.56;10443737;28;20578;-87
2023/12/30 10:24:59;;;;;;;6.93;1.63;;;;;;;5.74;100.00;100981.03;10460421;28;20048;-86
2023/12/30 10:30:00;;;;;;;10.80;1.65;;;;;;;5.77;100.00;100965.03;10445513;28;20091;-88
2023/12/30 10:35:00;;;;;;;12.95;2.78;;;;;;;5.92;100.00;100969.34;10423592;28;20451;-82
2023/12/30 10:40:01;;;;;;;5.38;1.20;;;;;;;5.84;100.00;100981.38;10460942;28;20080;-89
2023/12/30 10:45:01;;;;;;;15.20;2.72;;;;;;;5.90;100.00;100979.66;10440382;28;20045;-88
2023/12/30 10:50:04;;;;;;;11.68;2.83;;;;;;;5.95;100.00;100977.13;10440571;28;20405;-89
2023/12/30 10:55:11;;;;;;;8.73;1.40;;;;;;;6.02;100.00;101010.72;10443165;28;20135;-86
2023/12/30 11:00:14;;;;;;;;;;;;;;;6.17;100.00;101003.03;10442537;28;20149;-85
2023/12/30 11:05:20;;;;;;;6.53;1.52;;;;;;;6.26;100.00;101000.84;10443051;28;19927;-85
2023/12/30 11:10:21;;;;;;;14.75;2.10;;;;;;;6.39;100.00;101002.66;10430566;28;20044;-88
2023/12/30 11:15:28;;;;;;;5.78;1.67;;;;;;;6.43;100.00;100995.69;10441781;28;20075;-87
2023/12/30 11:20:30;;;;;;;4.80;2.13;;;;;;;6.54;100.00;101003.16;10458793;28;20043;-87
2023/12/30 11:25:40;;;;;;;7.40;1.60;;;;;;;6.49;100.00;100983.00;10441317;28;20048;-87
2023/12/30 11:30:41;;;;;;;7.18;1.23;;;;;;;6.54;100.00;100994.13;10459199;28;20104;-86
2023/12/30 11:35:42;;;;;;;10.93;2.47;;;;;;;6.51;100.00;100981.72;10424512;28;20091;-88
2023/12/30 11:40:42;;;;;;;13.98;4.65;;;;;;;6.63;100.00;100990.84;10472854;28;20041;-88
2023/12/30 11:45:43;;;;;;;5.35;1.30;;;;;;;6.66;100.00;100993.13;10423193;28;20097;-86
2023/12/30 11:50:50;;;;;;;10.27;2.17;;;;;;;6.58;100.00;100976.19;10435481;28;20041;-86
2023/12/30 11:55:51;;;;;;;6.82;2.05;;;;;;;6.79;100.00;101003.09;10441613;28;20029;-86
2023/12/30 12:00:52;;;;;;;7.20;1.75;;;;;;;6.83;100.00;100989.81;10453447;28;20045;-85
2023/12/30 12:05:52;;;;;;;5.85;1.83;;;;;;;6.97;100.00;101002.31;10437346;28;20040;-83
2023/12/30 12:10:53;;;;;;;6.70;2.65;;;;;;;6.93;100.00;100997.50;10440292;28;20037;-87
2023/12/30 12:15:58;;;;;;;9.85;1.75;;;;;;;7.04;100.00;100991.28;10433837;28;20440;-84
2023/12/30 12:21:03;;;;;;;11.07;2.08;;;;;;;7.12;100.00;100976.44;10455715;28;20037;-85
2023/12/30 12:26:04;;;;;;;8.63;1.63;;;;;;;7.28;100.00;100992.25;10455996;28;20072;-86
2023/12/30 12:31:08;;;;;;;9.05;1.77;;;;;;;7.16;100.00;100977.66;10455471;28;20405;-86
2023/12/30 12:36:08;;;;;;;15.68;1.85;;;;;;;7.12;100.00;100973.72;10434051;28;20079;-86
2023/12/30 12:41:09;;;;;;;9.52;2.05;;;;;;;7.04;100.00;100981.16;10418268;28;20440;-88
2023/12/30 12:46:11;;;;;;;14.98;2.30;;;;;;;7.06;100.00;100970.81;10435574;28;20041;-87
2023/12/30 12:51:11;;;;;;;16.08;4.18;;;;;;;7.16;100.00;100983.13;10437572;28;20045;-85
2023/12/30 12:56:12;;;;;;;11.77;2.33;;;;;;;7.04;100.00;100972.94;10455811;28;20052;-84
2023/12/30 13:01:12;;;;;;;15.25;2.75;;;;;;;6.83;100.00;100946.03;10420745;28;20041;-87
2023/12/30 13:06:13;;;;;;;14.77;2.85;;;;;;;6.96;100.00;100970.50;10430519;28;20041;-86
2023/12/30 13:11:14;;;;;;;14.80;3.03;;;;;;;7.02;100.00;100966.03;10436331;28;20724;-86
2023/12/30 13:16:14;;;;;;;10.50;2.63;;;;;;;7.08;100.00;100965.94;10438668;28;20037;-86
2023/12/30 13:21:15;;;;;;;17.05;2.72;;;;;;;7.08;100.00;100965.09;10439078;28;20040;-86
2023/12/30 13:26:18;;;;;;;9.95;3.25;;;;;;;6.98;100.00;100949.22;10471751;28;20400;-87
2023/12/30 13:31:24;;;;;;;13.27;3.17;;;;;;;7.03;100.00;100951.28;10426447;28;20111;-86
2023/12/30 13:36:25;;;;;;;11.30;2.90;;;;;;;7.12;100.00;100954.53;10425813;28;20061;-85
2023/12/30 13:41:26;;;;;;;12.80;2.97;;;;;;;7.12;100.00;100932.66;10475954;28;20033;-86
2023/12/30 13:51:48;;;;;;;9.65;2.88;;;;;;;7.24;100.00;100947.22;10477506;28;20087;-85
2023/12/30 13:56:52;;;;;;;12.70;3.05;;;;;;;7.31;100.00;100942.50;10436052;28;20037;-84
2023/12/30 14:01:54;;;;;;;12.27;2.97;;;;;;;7.34;100.00;100946.66;10429168;28;20098;-84
2023/12/30 14:06:58;;;;;;;21.52;6.93;;;;;;;7.37;100.00;100949.78;10444423;28;20037;-87
2023/12/30 14:12:05;;;;;;;16.30;6.53;;;;;;;7.30;100.00;100939.97;10461848;28;20051;-87
2023/12/30 14:17:06;;;;;;;15.15;4.15;;;;;;;7.21;100.00;100942.19;10461904;28;20045;-90
2023/12/30 14:22:07;;;;;;;11.85;3.90;;;;;;;7.03;100.00;100921.19;10428968;28;20057;-88
2023/12/30 14:27:08;;;;;;;17.83;5.55;;;;;;;6.90;100.00;100918.59;10458978;28;20059;-90
2023/12/30 14:32:11;;;;;;;11.77;4.15;;;;;;;6.88;100.00;100927.00;10474014;28;20509;-87
2023/12/30 14:37:12;;;;;;;21.55;6.32;;;;;;;6.94;100.00;100933.47;10447884;28;20034;-88
2023/12/30 14:42:13;;;;;;;15.63;5.38;;;;;;;6.91;100.00;100937.53;10461186;28;20037;-87
2023/12/30 14:47:14;;;;;;;12.10;4.80;;;;;;;6.82;100.00;100922.47;10424777;28;20052;-87
2023/12/30 14:52:15;;;;;;;12.85;4.38;;;;;;;6.79;100.00;100944.81;10442199;28;20249;-88
2023/12/30 14:57:15;;;;;;;12.82;5.43;;;;;;;6.65;100.00;100917.59;10459071;28;20049;-89
2023/12/30 15:02:16;;;;;;;13.95;5.00;;;;;;;6.74;100.00;100914.56;10456971;28;20064;-89
2023/12/30 15:07:17;;;;;;;16.63;6.72;;;;;;;6.78;100.00;100923.97;10441709;28;20037;-89
2023/12/30 15:12:21;;;;;;;23.08;6.07;;;;;;;6.82;100.00;100911.50;10427347;28;20056;-88
2023/12/30 15:17:22;;;;;;;24.50;6.13;;;;;;;6.69;100.00;100906.19;10444555;28;20045;-89
2023/12/30 15:22:25;;;;;;;17.25;5.57;;;;;;;6.75;100.00;100927.19;10426070;28;20051;-89
2023/12/30 15:27:26;;;;;;;23.02;6.63;;;;;;;6.67;100.00;100934.59;10449743;28;20047;-89
2023/12/30 15:32:27;;;;;;;22.60;6.75;;;;;;;6.74;100.00;100929.09;10416230;28;20044;-88
2023/12/30 15:37:27;;;;;;;26.63;7.50;;;;;;;6.65;100.00;100919.50;10422989;28;20512;-89
2023/12/30 15:42:28;;;;;;;21.45;8.85;;;;;;;6.69;100.00;100914.41;10455564;28;20401;-89
2023/12/30 15:47:28;;;;;;;39.50;19.70;;;;;;;6.48;100.00;100875.50;10425339;28;20420;-89
2023/12/30 15:52:29;;;;;;;30.23;10.70;;;;;;;6.78;100.00;100933.03;10439023;28;20033;-87
2023/12/30 15:57:30;;;;;;;23.55;9.52;;;;;;;6.76;100.00;100917.88;10420447;28;20044;-84
2023/12/30 16:02:30;;;;;;;23.08;10.80;;;;;;;6.72;100.00;100900.25;10457220;28;20111;-77
2023/12/30 16:07:31;;;;;;;39.50;18.23;;;;;;;6.79;100.00;100917.44;10423073;28;20152;-86
2023/12/30 16:12:31;;;;;;;18.83;8.68;;;;;;;6.89;100.00;100931.44;10440181;28;20087;-88
2023/12/30 16:17:31;;;;;;;27.77;12.07;;;;;;;6.81;100.00;100896.16;10436361;28;20048;-86
2023/12/30 16:22:33;;;;;;;25.67;10.05;;;;;;;6.95;100.00;100927.78;10456139;28;20608;-89
2023/12/30 16:27:34;;;;;;;26.45;11.15;;;;;;;6.95;100.00;100914.09;10455736;28;20088;-90
2023/12/30 16:32:34;;;;;;;30.00;13.05;;;;;;;6.96;100.00;100902.06;10421897;28;20064;-87
2023/12/30 16:37:35;;;;;;;28.30;11.27;;;;;;;6.97;100.00;100897.47;10404836;28;20041;-88
2023/12/30 16:42:35;;;;;;;32.15;11.95;;;;;;;6.98;100.00;100894.47;10454145;28;20629;-85
2023/12/30 16:47:37;;;;;;;24.13;10.20;;;;;;;6.73;100.00;100847.22;10453761;28;20128;-86
2023/12/30 16:52:37;;;;;;;35.40;10.13;;;;;;;7.06;100.00;100896.06;10456533;28;20044;-87
2023/12/30 16:57:38;;;;;;;21.52;11.23;;;;;;;7.03;100.00;100885.59;10437952;28;20053;-90
2023/12/30 17:02:38;;;;;;;27.23;11.32;;;;;;;7.06;100.00;100885.94;10422030;28;20904;-88
2023/12/30 17:07:39;;;;;;;19.42;9.30;;;;;;;7.05;100.00;100869.78;10419180;28;20033;-88
2023/12/30 17:12:39;;;;;;;27.13;11.40;;;;;;;7.07;100.00;100876.69;10437138;28;20048;-88
2023/12/30 17:17:40;;;;;;;24.30;12.32;;;;;;;7.10;100.00;100877.28;10420200;28;20049;-88
2023/12/30 17:22:41;;;;;;;22.08;9.77;;;;;;;7.01;100.00;100866.66;10421012;28;20052;-88
2023/12/30 17:27:42;;;;;;;27.58;9.55;;;;;;;7.03;100.00;100863.69;10415961;28;20041;-89
2023/12/30 17:32:43;;;;;;;30.35;10.25;;;;;;;7.11;100.00;100871.59;10419283;28;20037;-87
2023/12/30 17:37:44;;;;;;;29.17;10.10;;;;;;;7.07;100.00;100864.91;10415058;28;20123;-89
2023/12/30 17:42:44;;;;;;;19.23;8.55;;;;;;;7.16;100.00;100873.63;10452873;28;20039;-88
2023/12/30 17:47:46;;;;;;;27.10;10.95;;;;;;;7.17;100.00;100864.31;10432507;28;20041;-88
2023/12/30 17:52:46;;;;;;;21.48;9.55;;;;;;;7.06;100.00;100868.69;10454072;28;20033;-89
2023/12/30 17:57:47;;;;;;;22.30;9.05;;;;;;;7.06;100.00;100858.56;10438814;28;20489;-88
2023/12/30 18:02:48;;;;;;;24.42;10.25;;;;;;;6.72;100.00;100796.28;10454830;28;20044;-87
2023/12/30 18:07:49;;;;;;;22.48;9.57;;;;;;;7.07;100.00;100863.00;10456553;28;20405;-87
2023/12/30 18:12:50;;;;;;;19.25;10.15;;;;;;;7.04;100.00;100848.91;10455345;28;20044;-85
2023/12/30 18:17:50;;;;;;;36.55;11.60;;;;;;;7.14;100.00;100854.69;10438988;28;20068;-82
2023/12/30 18:22:51;;;;;;;34.20;13.15;;;;;;;7.06;100.00;100830.38;10444661;28;20063;-85
2023/12/30 18:27:52;;;;;;;20.48;8.77;;;;;;;7.12;100.00;100829.44;10459164;28;20037;-85
2023/12/30 18:32:52;;;;;;;18.90;7.65;;;;;;;7.16;100.00;100835.28;10464003;28;20029;-85
2023/12/30 18:37:52;;;;;;;19.65;8.50;;;;;;;7.08;100.00;100818.09;10463087;28;20049;-86
2023/12/30 18:42:53;;;;;;;16.42;7.75;;;;;;;6.95;100.00;100788.19;10461657;28;20041;-84
2023/12/30 18:47:54;;;;;;;18.90;8.88;;;;;;;7.29;100.00;100821.38;10463174;28;20040;-85
2023/12/30 18:52:56;;;;;;;20.27;7.63;;;;;;;7.27;100.00;100826.25;10460329;28;20037;-85
2023/12/30 18:57:56;;;;;;;20.65;9.50;;;;;;;7.31;100.00;100821.16;10462154;28;20120;-82
2023/12/30 19:02:57;;;;;;;13.63;7.35;;;;;;;7.34;100.00;100815.19;10460777;28;20516;-83
2023/12/30 19:07:57;;;;;;;23.13;13.27;;;;;;;7.30;100.00;100798.44;10461873;28;20466;-82
2023/12/30 19:12:58;;;;;;;17.05;10.30;;;;;;;7.37;100.00;100799.16;10463306;28;20045;-84
2023/12/30 19:17:59;;;;;;;17.67;7.88;;;;;;;7.39;100.00;100791.53;10477197;28;20114;-85
2023/12/30 19:22:59;;;;;;;19.80;8.55;;;;;;;7.41;100.00;100783.91;10459012;28;20421;-84
2023/12/30 19:28:00;;;;;;;13.43;5.38;;;;;;;7.44;100.00;100780.72;10440570;28;20045;-84
2023/12/30 19:33:03;;;;;;;14.70;6.30;;;;;;;7.46;100.00;100775.84;10461168;28;20048;-84
2023/12/30 19:38:03;;;;;;;18.05;7.15;;;;;;;7.29;100.00;100750.19;10458005;28;20424;-84
2023/12/30 19:43:04;;;;;;;13.32;5.80;;;;;;;7.20;100.00;100749.69;10459588;28;20049;-83
2023/12/30 19:48:05;;;;;;;20.75;6.28;;;;;;;7.08;100.00;100744.19;10442154;28;20037;-86
2023/12/30 19:53:06;;;;;;;16.17;6.60;;;;;;;7.01;100.00;100748.94;10458980;28;20041;-84
2023/12/30 19:58:07;;;;;;;18.05;6.22;;;;;;;6.91;100.00;100736.91;10441010;28;20041;-86
2023/12/30 20:03:10;;;;;;;13.38;6.07;;;;;;;6.92;100.00;100750.34;10441026;28;20528;-84
2023/12/30 20:08:11;;;;;;;107.82;64.15;;;;;;;6.83;100.00;100730.69;10456143;28;20044;-85
2023/12/30 20:13:11;;;;;;;11.38;5.05;;;;;;;6.80;100.00;100727.56;10456370;28;20079;-84
2023/12/30 20:18:12;;;;;;;13.02;4.35;;;;;;;6.67;100.00;100732.16;10454030;28;20473;-79
2023/12/30 20:23:12;;;;;;;19.52;5.70;;;;;;;6.60;100.00;100706.81;10422932;28;21612;-84
2023/12/30 20:28:13;;;;;;;12.68;4.60;;;;;;;6.59;100.00;100716.06;10430735;28;20059;-87
2023/12/30 20:33:13;;;;;;;12.13;3.97;;;;;;;6.31;100.00;100664.72;10455631;28;20045;-84
2023/12/30 20:38:14;;;;;;;13.38;5.22;;;;;;;6.56;100.00;100702.03;10454981;28;20051;-85
2023/12/30 20:43:14;;;;;;;11.95;4.60;;;;;;;6.50;100.00;100695.59;10430879;28;20073;-84
2023/12/30 20:48:16;;;;;;;15.00;4.50;;;;;;;6.42;100.00;100687.72;10448189;28;20033;-85
2023/12/30 20:53:16;;;;;;;11.10;4.55;;;;;;;6.40;100.00;100668.78;10436613;28;20045;-85
2023/12/30 20:58:17;;;;;;;13.48;4.95;;;;;;;6.35;100.00;100670.56;10421459;28;20037;-83
2023/12/30 21:03:18;;;;;;;11.80;4.72;;;;;;;6.33;100.00;100664.50;10438479;28;21419;-85
2023/12/30 21:08:18;;;;;;;13.63;5.35;;;;;;;6.23;100.00;100665.88;10422339;28;20068;-85
2023/12/30 21:13:19;;;;;;;11.13;4.43;;;;;;;6.05;100.00;100655.78;10457063;28;20040;-84
2023/12/30 21:18:20;;;;;;;12.70;4.07;;;;;;;6.02;100.00;100661.75;10438259;28;20048;-86
2023/12/30 21:23:20;;;;;;;13.73;4.13;;;;;;;5.93;100.00;100645.84;10429052;28;20048;-86
2023/12/30 21:28:21;;;;;;;14.77;4.97;;;;;;;5.91;100.00;100645.22;10454280;28;20041;-87
2023/12/30 21:33:21;;;;;;;9.23;4.93;;;;;;;6.01;100.00;100651.84;10470784;28;20041;-85
2023/12/30 21:38:22;;;;;;;18.40;6.63;;;;;;;6.00;100.00;100646.63;10451328;28;20056;-84
2023/12/30 21:43:23;;;;;;;16.35;4.35;;;;;;;5.98;100.00;100629.63;10454666;28;20071;-85
2023/12/30 21:48:23;;;;;;;10.48;4.30;;;;;;;5.96;100.00;100624.41;10453253;28;20033;-85
2023/12/30 21:53:24;;;;;;;9.10;4.70;;;;;;;5.98;100.00;100621.44;10456169;28;20037;-86
2023/12/30 21:58:24;;;;;;;15.77;4.13;;;;;;;5.91;100.00;100606.97;10436168;28;20045;-87
2023/12/30 22:03:25;;;;;;;10.80;4.10;;;;;;;5.97;100.00;100603.38;10477445;28;20071;-87
2023/12/30 22:08:25;;;;;;;8.48;4.20;;;;;;;5.96;100.00;100597.06;10464088;28;20041;-89
2023/12/30 22:13:26;;;;;;;13.00;4.55;;;;;;;6.13;100.00;100596.44;10429711;28;20041;-87
2023/12/30 22:18:26;;;;;;;9.57;4.03;;;;;;;5.99;100.00;100590.31;10463551;28;20045;-83
2023/12/30 22:23:27;;;;;;;7.70;4.38;;;;;;;5.95;100.00;100579.00;10443866;28;20087;-87
2023/12/30 22:28:27;;;;;;;14.30;5.00;;;;;;;5.99;100.00;100585.66;10460245;28;20459;-86
2023/12/30 22:33:30;;;;;;;10.23;3.50;;;;;;;5.90;100.00;100558.88;10477615;28;20099;-89
2023/12/30 22:38:31;;;;;;;10.02;3.70;;;;;;;6.10;100.00;100581.34;10458373;28;20041;-88
2023/12/30 22:43:32;;;;;;;8.70;3.83;;;;;;;6.24;100.00;100588.28;10443497;28;20431;-88
2023/12/30 22:48:33;;;;;;;5.47;2.70;;;;;;;6.21;100.00;100563.31;10433589;28;20037;-86
2023/12/30 22:53:33;;;;;;;9.70;2.80;;;;;;;6.26;100.00;100564.28;10460006;28;20064;-88
2023/12/30 22:58:34;;;;;;;6.43;2.60;;;;;;;6.13;100.00;100537.13;10459716;28;20064;-86